KDMO/DMO METAR and TAF weather

Enter ICAO airport designator
Station Type Date Time Source
KDMO METAR 2019/02/23 02:53 UTC NOAA

KDMO 230253Z AUTO 11010KT 4SM HZ OVC004 03/00 A3005 RMK AO2 UPE0156 SLP183 P0000 60002 T00280000 58015


Station Type Date Time Source
KDMO Decoded METAR 2019/02/23 02:53 UTC NOAA

SEDALIA MEMORIAL AIRPORT, MO, United States (KDMO) 38-43N 93-10W 274M
Feb 22, 2019 - 09:53 PM EST / 2019.02.23 0253 UTC
Wind: from the ESE (110 degrees) at 12 MPH (10 KT):0
Visibility: 4 mile(s):0
Sky conditions: overcast
Weather: haze
Precipitation last hour: A trace
Temperature: 37.0 F (2.8 C)
Dew Point: 32.0 F (0.0 C)
Relative Humidity: 81%
Pressure (altimeter): 30.05 in. Hg (1017 hPa)
Pressure tendency: 0.04 inches (1.5 hPa) lower than three hours ago
ob: KDMO 230253Z AUTO 11010KT 4SM HZ OVC004 03/00 A3005 RMK AO2 UPE0156 SLP183 P0000 60002 T00280000 58015
cycle: 3

Station Type Date Time Source
KDMO TAF UTC NOAA

Error!


Example: see airport list